Time;durP1;ratioP1;P1;durP2;ratioP2;P2;SDS_P1;SDS_P2;PMS_P1;PMS_P2;Temp;Humidity;BMP_temperature;BMP_pressure;BME280_temperature;BME280_humidity;BME280_pressure;Samples;Min_cycle;Max_cycle;Signal;HPM_P1;HPM_P2
2023/06/09 00:00:28;;;;;;;10.32;5.35;;;;;;;23.04;nan;101411.81;5045247;28;20031;-37
2023/06/09 00:02:54;;;;;;;11.00;5.38;;;;;;;22.98;nan;101407.06;5044790;28;20037;-37
2023/06/09 00:05:23;;;;;;;7.20;4.45;;;;;;;22.94;nan;101409.22;5042640;28;20478;-37
2023/06/09 00:07:52;;;;;;;10.68;5.32;;;;;;;22.96;nan;101401.84;5041975;28;20087;-38
2023/06/09 00:10:20;;;;;;;8.60;4.63;;;;;;;23.02;nan;101408.44;5045265;28;20132;-37
2023/06/09 00:12:52;;;;;;;10.82;5.22;;;;;;;23.04;nan;101401.06;5044317;28;20037;-37
2023/06/09 00:15:18;;;;;;;9.48;4.63;;;;;;;23.04;nan;101400.22;5041825;28;20037;-37
2023/06/09 00:17:45;;;;;;;10.77;5.35;;;;;;;22.97;nan;101398.19;5039444;28;22224;-37
2023/06/09 00:20:12;;;;;;;8.18;5.00;;;;;;;22.91;nan;101396.09;5012692;28;20033;-37
2023/06/09 00:22:43;;;;;;;9.55;4.53;;;;;;;22.90;nan;101396.25;5025861;28;20094;-38
2023/06/09 00:25:13;;;;;;;10.65;5.75;;;;;;;22.84;nan;101395.00;5040101;28;20055;-36
2023/06/09 00:27:39;;;;;;;11.90;5.07;;;;;;;22.82;nan;101394.34;5036000;28;20506;-37
2023/06/09 00:30:11;;;;;;;10.25;5.10;;;;;;;22.81;nan;101388.13;5038374;28;20036;-38
2023/06/09 00:32:39;;;;;;;7.63;4.35;;;;;;;22.77;nan;101392.09;5044093;28;20112;-37
2023/06/09 00:35:05;;;;;;;8.80;4.93;;;;;;;22.70;nan;101393.72;5035330;28;20068;-37
2023/06/09 00:37:33;;;;;;;9.50;5.28;;;;;;;22.54;nan;101391.69;5045941;28;20052;-37
2023/06/09 00:39:58;;;;;;;10.20;5.57;;;;;;;22.37;nan;101402.25;5042326;28;20098;-37
2023/06/09 00:42:24;;;;;;;12.23;5.63;;;;;;;22.36;nan;101394.34;5043987;28;20715;-37
2023/06/09 00:44:50;;;;;;;9.90;5.47;;;;;;;22.30;nan;101394.97;5047410;28;20096;-37
2023/06/09 00:47:18;;;;;;;9.38;5.95;;;;;;;22.29;nan;101387.91;5041801;28;20031;-37
2023/06/09 00:49:43;;;;;;;9.02;5.80;;;;;;;22.28;nan;101392.41;5047686;28;20029;-37
2023/06/09 00:52:12;;;;;;;11.43;5.78;;;;;;;22.20;nan;101385.13;5028401;28;20045;-37
2023/06/09 00:54:40;;;;;;;12.15;5.40;;;;;;;22.14;nan;101396.44;5047093;28;20033;-38
2023/06/09 00:57:07;;;;;;;10.63;5.25;;;;;;;22.11;nan;101386.03;5042632;28;20036;-37
2023/06/09 00:59:37;;;;;;;9.38;4.82;;;;;;;22.12;nan;101393.06;5033464;28;20033;-37
2023/06/09 01:02:07;;;;;;;12.15;5.75;;;;;;;21.93;nan;101392.16;5046886;28;20040;-37
2023/06/09 01:04:34;;;;;;;13.57;6.57;;;;;;;21.85;nan;101385.84;5047180;28;20027;-37
2023/06/09 01:07:10;;;;;;;8.57;5.63;;;;;;;21.76;nan;101387.56;5047217;28;20062;-37
2023/06/09 01:09:45;;;;;;;15.82;6.88;;;;;;;21.71;nan;101390.69;5047997;28;20063;-37
2023/06/09 01:12:29;;;;;;;14.85;6.65;;;;;;;21.68;nan;101392.84;5046807;28;20487;-37
2023/06/09 01:15:17;;;;;;;13.25;6.00;;;;;;;21.73;nan;101394.06;5036282;28;20040;-37
2023/06/09 01:17:45;;;;;;;10.10;5.38;;;;;;;21.72;nan;101386.16;5049414;28;20060;-37
2023/06/09 01:20:15;;;;;;;11.43;6.65;;;;;;;21.71;nan;101389.84;5048498;28;20025;-37
2023/06/09 01:23:00;;;;;;;8.57;5.60;;;;;;;21.71;nan;101395.19;5044984;28;20075;-37
2023/06/09 01:25:29;;;;;;;10.20;5.70;;;;;;;21.72;nan;101391.53;5044569;28;20032;-36
2023/06/09 01:27:57;;;;;;;10.38;5.57;;;;;;;21.76;nan;101388.44;5046194;28;20594;-36
2023/06/09 01:30:32;;;;;;;9.32;5.20;;;;;;;21.79;nan;101387.28;5047209;28;20107;-37
2023/06/09 01:32:59;;;;;;;13.43;5.47;;;;;;;21.81;nan;101390.66;5038543;28;20037;-37
2023/06/09 01:35:26;;;;;;;6.68;4.55;;;;;;;21.84;nan;101393.06;5036151;28;20442;-37
2023/06/09 01:37:53;;;;;;;12.05;5.85;;;;;;;21.81;nan;101388.00;5045238;28;20417;-37
2023/06/09 01:40:19;;;;;;;10.77;5.25;;;;;;;21.79;nan;101389.97;5045804;28;20507;-37
2023/06/09 01:42:45;;;;;;;9.93;5.00;;;;;;;21.73;nan;101391.41;5029177;28;20556;-36
2023/06/09 01:45:14;;;;;;;12.68;5.40;;;;;;;21.71;nan;101396.06;5044701;28;20032;-38
2023/06/09 01:47:42;;;;;;;7.93;4.78;;;;;;;21.72;nan;101392.38;5039907;28;20103;-37
2023/06/09 01:50:18;;;;;;;9.40;5.00;;;;;;;21.68;nan;101395.50;5019385;28;20514;-37
2023/06/09 01:52:59;;;;;;;9.18;5.32;;;;;;;21.64;nan;101392.25;5045228;28;20959;-34
2023/06/09 01:55:32;;;;;;;7.63;5.38;;;;;;;21.56;nan;101387.59;5043884;28;20435;-35
2023/06/09 01:58:17;;;;;;;12.13;5.10;;;;;;;21.59;nan;101390.00;5047677;28;20446;-34
2023/06/09 02:00:46;;;;;;;6.97;3.35;;;;;;;21.47;nan;101388.47;5045444;28;20032;-35
2023/06/09 02:03:16;;;;;;;11.13;5.47;;;;;;;21.40;nan;101390.06;5042974;28;20036;-35
2023/06/09 02:05:43;;;;;;;10.02;5.28;;;;;;;21.31;nan;101389.09;5042333;28;20025;-37
2023/06/09 02:08:09;;;;;;;10.32;5.25;;;;;;;21.29;nan;101394.56;5045058;28;20036;-37
2023/06/09 02:10:36;;;;;;;9.40;5.25;;;;;;;21.23;nan;101389.81;5041193;28;21127;-37
2023/06/09 02:13:18;;;;;;;10.20;5.28;;;;;;;21.16;nan;101394.03;5044173;28;20036;-37
2023/06/09 02:15:44;;;;;;;7.90;5.70;;;;;;;21.18;nan;101400.09;5043393;28;20769;-37
2023/06/09 02:18:11;;;;;;;15.82;6.30;;;;;;;21.24;nan;101394.16;5040885;28;20041;-38
2023/06/09 02:20:44;;;;;;;10.05;5.72;;;;;;;21.26;nan;101397.53;5045349;28;20037;-38
2023/06/09 02:23:12;;;;;;;11.52;5.32;;;;;;;21.19;nan;101392.88;5043439;28;20491;-37
2023/06/09 02:25:38;;;;;;;11.70;6.28;;;;;;;21.11;nan;101399.81;5046201;28;20091;-38
2023/06/09 02:28:05;;;;;;;9.30;5.45;;;;;;;21.07;nan;101401.06;5051996;28;20033;-35
2023/06/09 02:30:32;;;;;;;11.43;5.38;;;;;;;20.93;nan;101410.38;5042291;28;20048;-37
2023/06/09 02:33:00;;;;;;;11.38;5.18;;;;;;;20.82;nan;101403.34;5023775;28;20108;-37
2023/06/09 02:35:32;;;;;;;7.13;5.10;;;;;;;20.69;nan;101405.41;5042665;28;20043;-34
2023/06/09 02:38:00;;;;;;;5.03;3.15;;;;;;;20.73;nan;101411.31;5041128;28;20056;-37
2023/06/09 02:40:28;;;;;;;14.65;5.65;;;;;;;20.63;nan;101405.94;5046407;28;20087;-34
2023/06/09 02:42:56;;;;;;;10.13;5.72;;;;;;;20.53;nan;101403.25;5048146;28;20040;-34
2023/06/09 02:45:26;;;;;;;12.20;5.30;;;;;;;20.52;nan;101405.09;5037340;28;20043;-37
2023/06/09 02:47:54;;;;;;;12.32;6.20;;;;;;;20.52;nan;101404.22;5042766;28;20036;-37
2023/06/09 02:50:23;;;;;;;9.77;5.40;;;;;;;20.58;nan;101408.19;5047972;28;20028;-35
2023/06/09 02:52:48;;;;;;;9.75;4.63;;;;;;;20.65;nan;101414.69;5050312;28;20522;-34
2023/06/09 02:55:20;;;;;;;10.50;5.15;;;;;;;20.63;nan;101419.31;5040905;28;20041;-37
2023/06/09 02:57:46;;;;;;;9.77;4.88;;;;;;;20.64;nan;101419.19;5045778;28;20505;-38
2023/06/09 03:00:12;;;;;;;10.90;4.97;;;;;;;20.58;nan;101424.22;5040306;28;20072;-37
2023/06/09 03:02:41;;;;;;;11.63;5.07;;;;;;;20.58;nan;101421.53;5048535;28;20692;-37
2023/06/09 03:05:07;;;;;;;12.07;6.30;;;;;;;20.47;nan;101419.84;5038153;28;21120;-38
2023/06/09 03:07:32;;;;;;;11.27;5.50;;;;;;;20.32;nan;101414.91;5044501;28;20059;-37
2023/06/09 03:09:59;;;;;;;12.60;5.95;;;;;;;20.17;nan;101422.44;5040841;28;20136;-37
2023/06/09 03:12:30;;;;;;;9.45;4.97;;;;;;;20.12;nan;101418.47;5040537;28;20033;-37
2023/06/09 03:14:55;;;;;;;17.13;5.78;;;;;;;20.14;nan;101420.03;5039413;28;20037;-34
2023/06/09 03:17:23;;;;;;;12.25;5.28;;;;;;;20.25;nan;101424.44;5041497;28;20041;-37
2023/06/09 03:19:51;;;;;;;14.02;5.15;;;;;;;20.28;nan;101432.19;5044837;28;20028;-37
2023/06/09 03:22:17;;;;;;;9.90;5.38;;;;;;;20.31;nan;101431.06;5038303;28;20025;-35
2023/06/09 03:24:45;;;;;;;12.30;6.05;;;;;;;20.36;nan;101424.31;5041181;28;20098;-38
2023/06/09 03:27:11;;;;;;;14.45;5.68;;;;;;;20.40;nan;101423.06;5043210;28;20047;-38
2023/06/09 03:29:38;;;;;;;9.75;5.53;;;;;;;20.38;nan;101435.72;5041672;28;20025;-38
2023/06/09 03:32:04;;;;;;;13.13;6.07;;;;;;;20.33;nan;101440.66;5039041;28;20064;-35
2023/06/09 03:34:32;;;;;;;14.60;5.68;;;;;;;20.23;nan;101437.94;5041945;28;20113;-35
2023/06/09 03:36:58;;;;;;;11.40;5.55;;;;;;;20.17;nan;101440.31;5041889;28;20147;-35
2023/06/09 03:39:25;;;;;;;14.63;6.65;;;;;;;20.11;nan;101439.03;5022661;28;20051;-35
2023/06/09 03:41:55;;;;;;;15.70;7.28;;;;;;;20.07;nan;101442.94;5041148;28;20414;-35
2023/06/09 03:44:21;;;;;;;16.45;9.32;;;;;;;20.00;nan;101445.28;5040946;28;20044;-35
2023/06/09 03:46:47;;;;;;;12.95;6.90;;;;;;;19.99;nan;101446.25;5040190;28;20037;-35
2023/06/09 03:49:14;;;;;;;13.35;5.90;;;;;;;19.99;nan;101448.94;5039609;28;20068;-37
2023/06/09 03:51:40;;;;;;;12.93;6.60;;;;;;;19.94;nan;101453.81;5043507;28;20094;-35
2023/06/09 03:54:08;;;;;;;10.00;6.32;;;;;;;19.93;nan;101458.34;5043376;28;20480;-35
2023/06/09 03:56:33;;;;;;;10.73;6.47;;;;;;;19.87;nan;101468.69;5044086;28;20424;-37
2023/06/09 03:59:01;;;;;;;14.35;6.70;;;;;;;19.89;nan;101472.91;5031165;28;20044;-35
2023/06/09 04:01:27;;;;;;;13.68;6.60;;;;;;;19.94;nan;101469.84;5012719;28;20075;-35
2023/06/09 04:03:52;;;;;;;16.30;7.88;;;;;;;20.00;nan;101472.00;5040586;28;20548;-35
2023/06/09 04:06:18;;;;;;;14.48;6.57;;;;;;;20.02;nan;101470.03;5044286;28;20455;-35
2023/06/09 04:08:46;;;;;;;14.32;6.82;;;;;;;20.08;nan;101466.00;5042835;28;20104;-35
2023/06/09 04:11:11;;;;;;;17.02;7.97;;;;;;;20.13;nan;101471.75;5036426;28;20044;-35
2023/06/09 04:13:37;;;;;;;16.95;8.68;;;;;;;20.17;nan;101470.53;5013757;28;20474;-35
2023/06/09 04:16:02;;;;;;;17.67;7.50;;;;;;;20.22;nan;101467.44;5026276;28;20067;-35
2023/06/09 04:18:31;;;;;;;20.10;6.82;;;;;;;20.32;nan;101471.03;5008098;28;20033;-35
2023/06/09 04:20:59;;;;;;;13.18;6.25;;;;;;;20.37;nan;101471.44;5033274;28;20124;-40
2023/06/09 04:23:27;;;;;;;17.08;8.23;;;;;;;20.35;nan;101461.88;5035742;28;20365;-35
2023/06/09 04:25:53;;;;;;;7.63;4.15;;;;;;;20.35;nan;101472.56;5011577;28;20495;-35
2023/06/09 04:28:19;;;;;;;12.48;7.45;;;;;;;20.37;nan;101465.25;5045687;28;20033;-35
2023/06/09 04:30:47;;;;;;;15.60;6.60;;;;;;;20.36;nan;101460.91;5030440;28;20045;-35
2023/06/09 04:33:13;;;;;;;12.38;6.05;;;;;;;20.37;nan;101458.06;5044250;28;20098;-36
2023/06/09 04:35:41;;;;;;;14.00;7.03;;;;;;;20.42;nan;101457.66;5032065;28;20403;-36
2023/06/09 04:38:07;;;;;;;22.02;10.70;;;;;;;20.41;nan;101456.84;5012749;28;20500;-36
2023/06/09 04:40:37;;;;;;;20.08;9.07;;;;;;;20.47;nan;101459.94;5022291;28;20087;-36
2023/06/09 04:43:07;;;;;;;12.65;6.47;;;;;;;20.52;nan;101463.03;5044348;28;20399;-36
2023/06/09 04:45:35;;;;;;;6.95;3.92;;;;;;;20.55;nan;101460.09;5040050;28;20028;-36
2023/06/09 04:48:01;;;;;;;9.52;4.10;;;;;;;20.56;nan;101461.78;5028944;28;20060;-36
2023/06/09 04:50:32;;;;;;;12.43;5.85;;;;;;;20.61;nan;101453.34;5023818;28;20459;-36
2023/06/09 04:53:06;;;;;;;15.15;5.57;;;;;;;20.60;nan;101452.53;5044186;28;20031;-35
2023/06/09 04:55:35;;;;;;;12.02;5.60;;;;;;;20.59;nan;101450.84;5048922;28;20032;-36
2023/06/09 04:58:00;;;;;;;12.63;5.57;;;;;;;20.55;nan;101452.09;5032258;28;20029;-35
2023/06/09 05:00:29;;;;;;;10.05;5.50;;;;;;;20.54;nan;101455.75;5032267;28;20067;-36
2023/06/09 05:02:58;;;;;;;10.93;6.35;;;;;;;20.58;nan;101453.63;5036385;28;20063;-35
2023/06/09 05:05:26;;;;;;;14.93;5.63;;;;;;;20.61;nan;101456.03;5048082;28;20052;-35
2023/06/09 05:07:52;;;;;;;11.80;5.75;;;;;;;20.64;nan;101459.31;5027033;28;20025;-36
2023/06/09 05:10:20;;;;;;;12.05;5.63;;;;;;;20.64;nan;101448.59;5031343;28;20043;-35
2023/06/09 05:12:48;;;;;;;14.80;5.78;;;;;;;20.65;nan;101450.25;5048443;28;20036;-36
2023/06/09 05:15:14;;;;;;;12.90;5.80;;;;;;;20.69;nan;101449.00;5035593;28;20506;-35
2023/06/09 05:17:42;;;;;;;14.45;5.78;;;;;;;20.73;nan;101444.22;5028853;28;20048;-36
2023/06/09 05:20:14;;;;;;;15.82;6.45;;;;;;;20.76;nan;101443.16;5024693;28;20055;-35
2023/06/09 05:22:40;;;;;;;10.27;5.22;;;;;;;20.74;nan;101442.41;5041228;28;20029;-36
2023/06/09 05:25:10;;;;;;;10.85;4.75;;;;;;;20.78;nan;101446.53;5025140;28;20044;-36
2023/06/09 05:27:36;;;;;;;11.68;4.88;;;;;;;20.81;nan;101443.56;5060513;28;21541;-36
2023/06/09 05:30:02;;;;;;;9.07;4.85;;;;;;;20.86;nan;101442.19;5023852;28;20124;-35
2023/06/09 05:32:28;;;;;;;4.30;2.88;;;;;;;20.90;nan;101442.75;5031175;28;20102;-36
2023/06/09 05:35:03;;;;;;;22.75;10.35;;;;;;;20.95;nan;101437.81;5045161;28;20064;-36
2023/06/09 05:37:29;;;;;;;11.27;6.15;;;;;;;20.99;nan;101444.56;5046620;28;20025;-36
2023/06/09 05:39:57;;;;;;;10.77;5.25;;;;;;;21.08;nan;101440.22;5015524;28;20458;-35
2023/06/09 05:42:25;;;;;;;12.27;5.60;;;;;;;21.05;nan;101436.97;5046532;28;20036;-35
2023/06/09 05:44:51;;;;;;;12.10;4.97;;;;;;;21.08;nan;101444.75;5028560;28;20128;-36
2023/06/09 05:47:19;;;;;;;8.77;4.55;;;;;;;21.09;nan;101438.41;5048003;28;20144;-36
2023/06/09 05:49:45;;;;;;;7.43;4.03;;;;;;;21.10;nan;101435.56;5030727;28;20399;-36
2023/06/09 05:52:25;;;;;;;10.25;5.05;;;;;;;21.15;nan;101432.47;5026957;28;20029;-36
2023/06/09 05:54:56;;;;;;;8.77;4.47;;;;;;;21.23;nan;101439.78;5028281;28;20060;-36
2023/06/09 05:57:22;;;;;;;10.98;4.60;;;;;;;21.32;nan;101439.78;5026998;28;20033;-35
2023/06/09 05:59:48;;;;;;;24.33;12.63;;;;;;;21.42;nan;101444.28;5020385;28;20025;-35
2023/06/09 06:02:18;;;;;;;15.45;7.30;;;;;;;21.52;nan;101450.47;5041361;28;20094;-35
2023/06/09 06:04:44;;;;;;;12.13;5.00;;;;;;;21.56;nan;101453.69;5042739;28;20436;-36
2023/06/09 06:07:14;;;;;;;8.60;4.72;;;;;;;21.58;nan;101449.88;5024248;28;20522;-36
2023/06/09 06:09:42;;;;;;;13.27;4.45;;;;;;;21.65;nan;101452.03;5042706;28;20067;-36
2023/06/09 06:12:10;;;;;;;8.57;4.40;;;;;;;21.71;nan;101449.63;5010450;28;20465;-36
2023/06/09 06:14:38;;;;;;;10.15;4.30;;;;;;;21.77;nan;101456.22;5035421;28;20423;-36
2023/06/09 06:17:06;;;;;;;8.75;4.20;;;;;;;21.83;nan;101458.34;5033026;28;20471;-36
2023/06/09 06:19:37;;;;;;;8.63;4.50;;;;;;;21.89;nan;101452.38;5039522;28;20033;-36
2023/06/09 06:22:03;;;;;;;12.10;5.75;;;;;;;21.96;nan;101451.81;5038794;28;20091;-35
2023/06/09 06:24:31;;;;;;;7.07;4.05;;;;;;;22.00;nan;101454.03;5038588;28;20048;-35
2023/06/09 06:26:57;;;;;;;9.73;4.18;;;;;;;22.01;nan;101452.19;5038500;28;20115;-35
2023/06/09 06:29:25;;;;;;;8.25;4.43;;;;;;;22.01;nan;101450.38;5013913;28;20039;-34
2023/06/09 06:31:54;;;;;;;11.18;4.53;;;;;;;22.02;nan;101453.88;5017771;28;20395;-37
2023/06/09 06:34:20;;;;;;;9.40;4.28;;;;;;;22.06;nan;101452.59;5038830;28;20061;-37
2023/06/09 06:36:47;;;;;;;9.57;4.57;;;;;;;22.10;nan;101454.00;4988894;28;20144;-37
2023/06/09 06:39:16;;;;;;;8.73;4.72;;;;;;;22.15;nan;101451.75;5012893;28;20032;-37
2023/06/09 06:41:42;;;;;;;7.18;3.70;;;;;;;22.21;nan;101456.50;5023878;28;20024;-37
2023/06/09 06:44:13;;;;;;;9.55;4.70;;;;;;;22.30;nan;101453.94;5005637;28;20029;-37
2023/06/09 06:46:38;;;;;;;9.48;4.25;;;;;;;22.36;nan;101454.19;5012916;28;20032;-37
2023/06/09 06:49:07;;;;;;;8.13;4.05;;;;;;;22.42;nan;101452.75;5021471;28;20116;-37
2023/06/09 06:51:33;;;;;;;13.40;5.57;;;;;;;22.48;nan;101462.03;5032479;28;20043;-34
2023/06/09 06:54:04;;;;;;;7.63;3.78;;;;;;;22.52;nan;101458.06;5021516;28;20037;-35
2023/06/09 06:56:30;;;;;;;16.33;5.43;;;;;;;22.55;nan;101454.25;5017716;28;20040;-35
2023/06/09 06:58:56;;;;;;;8.73;4.20;;;;;;;22.60;nan;101462.69;5018786;28;20044;-35
2023/06/09 07:01:26;;;;;;;8.50;4.47;;;;;;;22.67;nan;101467.31;5022503;28;20439;-34
2023/06/09 07:03:52;;;;;;;8.15;3.72;;;;;;;22.70;nan;101468.81;5033747;28;20068;-35
2023/06/09 07:06:21;;;;;;;8.25;4.40;;;;;;;22.76;nan;101475.41;5036918;28;20519;-35
2023/06/09 07:08:47;;;;;;;7.82;3.90;;;;;;;22.79;nan;101465.22;5017356;28;20040;-36
2023/06/09 07:11:17;;;;;;;7.18;4.03;;;;;;;22.84;nan;101472.81;5033656;28;20036;-35
2023/06/09 07:13:43;;;;;;;11.63;4.13;;;;;;;22.87;nan;101474.38;5038189;28;20531;-35
2023/06/09 07:16:12;;;;;;;8.75;4.07;;;;;;;22.93;nan;101479.09;5014314;28;20140;-36
2023/06/09 07:18:40;;;;;;;9.18;5.18;;;;;;;22.97;nan;101477.81;5005990;28;21364;-35
2023/06/09 07:21:06;;;;;;;7.68;3.72;;;;;;;23.01;nan;101479.22;5036299;28;20543;-37
2023/06/09 07:23:32;;;;;;;7.13;4.05;;;;;;;23.04;nan;101476.22;5021233;28;20044;-35
2023/06/09 07:25:57;;;;;;;11.88;3.83;;;;;;;23.05;nan;101477.06;5017947;28;20605;-35
2023/06/09 07:28:26;;;;;;;7.30;3.67;;;;;;;23.06;nan;101470.69;5028521;28;20033;-35
2023/06/09 07:30:52;;;;;;;5.57;3.33;;;;;;;23.11;nan;101471.09;5016545;28;20404;-35
2023/06/09 07:33:19;;;;;;;8.63;4.40;;;;;;;23.14;nan;101465.41;5014511;28;20025;-35
2023/06/09 07:35:48;;;;;;;8.82;4.32;;;;;;;23.21;nan;101473.72;5009732;28;20052;-35
2023/06/09 07:38:15;;;;;;;5.57;3.40;;;;;;;23.25;nan;101472.41;5005991;28;20067;-35
2023/06/09 07:40:40;;;;;;;6.00;3.28;;;;;;;23.29;nan;101473.78;5020017;28;20065;-36
2023/06/09 07:43:08;;;;;;;7.10;3.45;;;;;;;23.31;nan;101466.41;5014035;28;20037;-35
2023/06/09 07:45:34;;;;;;;8.02;3.80;;;;;;;23.37;nan;101471.16;5031803;28;20653;-35
2023/06/09 07:48:09;;;;;;;8.45;4.03;;;;;;;23.41;nan;101475.22;5018205;28;20504;-36
2023/06/09 07:50:34;;;;;;;6.20;3.55;;;;;;;23.43;nan;101469.72;5005861;28;20029;-36
2023/06/09 07:53:06;;;;;;;7.43;3.58;;;;;;;23.46;nan;101473.91;5013206;28;20064;-35
2023/06/09 07:55:31;;;;;;;5.82;3.25;;;;;;;23.49;nan;101470.94;5014304;28;20090;-35
2023/06/09 07:57:57;;;;;;;6.57;3.17;;;;;;;23.53;nan;101473.13;5017406;28;20059;-36
2023/06/09 08:00:25;;;;;;;6.28;3.20;;;;;;;23.56;nan;101466.59;5001710;28;20136;-35
2023/06/09 08:03:15;;;;;;;7.90;3.67;;;;;;;23.63;nan;101464.13;5020089;28;20021;-36
2023/06/09 08:05:42;;;;;;;7.70;3.55;;;;;;;23.63;nan;101465.00;5057585;28;20060;-35
2023/06/09 08:08:08;;;;;;;13.88;7.40;;;;;;;23.69;nan;101460.81;5039149;28;20021;-36
2023/06/09 08:10:33;;;;;;;23.52;8.60;;;;;;;23.70;nan;101468.72;5042689;28;20045;-36
2023/06/09 08:13:02;;;;;;;12.27;6.07;;;;;;;23.70;nan;101463.34;5044569;28;20037;-35
2023/06/09 08:15:30;;;;;;;10.57;5.25;;;;;;;23.73;nan;101463.03;5046511;28;20116;-35
2023/06/09 08:17:56;;;;;;;14.35;5.18;;;;;;;23.77;nan;101458.19;5043815;28;20028;-35
2023/06/09 08:20:24;;;;;;;4.53;2.25;;;;;;;23.80;nan;101462.41;5024418;28;20415;-36
2023/06/09 08:22:52;;;;;;;6.53;3.97;;;;;;;23.84;nan;101467.31;5029308;28;20476;-36
2023/06/09 08:25:21;;;;;;;6.88;3.28;;;;;;;23.89;nan;101466.81;5018881;28;20028;-36
2023/06/09 08:27:47;;;;;;;6.13;2.92;;;;;;;23.93;nan;101468.19;5013484;28;20118;-36
2023/06/09 08:30:14;;;;;;;7.20;3.53;;;;;;;23.97;nan;101477.66;5050631;28;20075;-35
2023/06/09 08:32:40;;;;;;;7.75;3.58;;;;;;;23.99;nan;101472.13;5043614;28;20025;-35
2023/06/09 08:35:09;;;;;;;5.93;2.70;;;;;;;24.04;nan;101469.81;5042780;28;20510;-35
2023/06/09 08:37:36;;;;;;;6.95;3.03;;;;;;;24.08;nan;101464.94;5041152;28;20495;-35
2023/06/09 08:40:07;;;;;;;6.80;3.15;;;;;;;24.11;nan;101465.47;5046874;28;20035;-35
2023/06/09 08:42:33;;;;;;;;;;;;;;;24.15;nan;101465.97;5047113;28;20032;-35
2023/06/09 08:45:09;;;;;;;6.22;3.35;;;;;;;24.20;nan;101466.34;5030061;28;19928;-35
2023/06/09 08:47:42;;;;;;;7.70;3.17;;;;;;;24.24;nan;101465.03;5047506;28;20122;-36
2023/06/09 08:50:08;;;;;;;6.40;2.78;;;;;;;24.28;nan;101468.22;5049430;28;20029;-35
2023/06/09 08:52:40;;;;;;;7.38;3.55;;;;;;;24.32;nan;101462.34;5045768;28;20119;-35
2023/06/09 08:55:06;;;;;;;9.90;3.28;;;;;;;24.37;nan;101469.94;5028460;28;20041;-35
2023/06/09 08:57:33;;;;;;;6.07;2.90;;;;;;;24.41;nan;101459.72;5030545;28;20033;-35
2023/06/09 09:00:04;;;;;;;6.88;2.80;;;;;;;24.48;nan;101458.03;5045226;28;20032;-35
2023/06/09 09:02:30;;;;;;;;;;;;;;;24.53;nan;101457.53;5045861;28;20053;-35
2023/06/09 09:04:56;;;;;;;6.32;2.85;;;;;;;24.49;nan;101457.03;5051037;28;19964;-35
2023/06/09 09:07:22;;;;;;;5.80;3.15;;;;;;;24.58;nan;101456.03;5032420;28;20029;-36
2023/06/09 09:09:47;;;;;;;6.82;3.28;;;;;;;24.62;nan;101461.97;5030480;28;20479;-35
2023/06/09 09:12:13;;;;;;;9.23;2.78;;;;;;;24.65;nan;101457.09;5030157;28;20099;-36
2023/06/09 09:14:46;;;;;;;7.93;3.13;;;;;;;24.70;nan;101453.09;5030289;28;20067;-35
2023/06/09 09:17:13;;;;;;;8.00;3.22;;;;;;;24.74;nan;101457.97;5046332;28;20441;-35
2023/06/09 09:19:51;;;;;;;6.57;2.60;;;;;;;24.78;nan;101453.09;5039108;28;20033;-35
2023/06/09 09:22:17;;;;;;;6.43;3.10;;;;;;;24.80;nan;101451.09;5055744;28;20052;-35
2023/06/09 09:24:49;;;;;;;9.43;3.35;;;;;;;24.87;nan;101459.34;5031157;28;20056;-35
2023/06/09 09:27:26;;;;;;;;;;;;;;;24.91;nan;101460.69;5037391;28;20017;-36
2023/06/09 09:29:51;;;;;;;8.25;3.08;;;;;;;24.91;nan;101458.00;5043147;28;19917;-35
2023/06/09 09:32:17;;;;;;;7.18;3.75;;;;;;;24.97;nan;101462.72;5013034;28;20038;-35
2023/06/09 09:34:46;;;;;;;6.65;3.30;;;;;;;25.00;nan;101456.16;5011752;28;20040;-35
2023/06/09 09:37:15;;;;;;;5.15;3.28;;;;;;;25.01;nan;101455.16;5014496;28;20025;-35
2023/06/09 09:39:55;;;;;;;7.10;2.90;;;;;;;25.05;nan;101451.97;5039050;28;20040;-35
2023/06/09 09:42:30;;;;;;;4.47;2.20;;;;;;;25.07;nan;101454.47;5044979;28;20054;-35
2023/06/09 09:44:55;;;;;;;6.68;2.72;;;;;;;25.08;nan;101461.56;5044716;28;20031;-36
2023/06/09 09:47:24;;;;;;;7.22;2.47;;;;;;;25.14;nan;101463.59;5045494;28;20028;-36
2023/06/09 09:49:55;;;;;;;7.25;2.78;;;;;;;25.22;nan;101468.97;5029009;28;20078;-36
2023/06/09 09:52:29;;;;;;;4.15;2.72;;;;;;;25.19;nan;101458.50;5024879;28;20507;-39
2023/06/09 09:54:58;;;;;;;5.38;2.20;;;;;;;25.13;nan;101458.34;5030826;28;20074;-36
2023/06/09 09:57:35;;;;;;;6.38;2.30;;;;;;;25.20;nan;101448.59;5045480;28;20111;-36
2023/06/09 10:00:11;;;;;;;26.40;12.98;;;;;;;25.26;nan;101458.69;5025559;28;20033;-36
2023/06/09 10:02:41;;;;;;;5.03;2.55;;;;;;;25.31;nan;101455.50;5041528;28;20394;-36
2023/06/09 10:05:10;;;;;;;5.43;2.00;;;;;;;25.35;nan;101456.84;5037373;28;20043;-36
2023/06/09 10:07:43;;;;;;;3.50;2.15;;;;;;;25.41;nan;101456.16;5028501;28;20091;-36
2023/06/09 10:10:14;;;;;;;3.80;2.53;;;;;;;25.58;nan;101453.50;5028422;28;20583;-36
2023/06/09 10:12:41;;;;;;;9.07;4.13;;;;;;;25.59;nan;101447.09;5035940;28;20035;-36
2023/06/09 10:15:14;;;;;;;11.38;5.10;;;;;;;25.64;nan;101450.94;5031274;28;20024;-36
2023/06/09 10:17:43;;;;;;;9.57;4.75;;;;;;;25.68;nan;101444.22;5036003;28;20411;-36
2023/06/09 10:20:12;;;;;;;9.80;4.47;;;;;;;25.72;nan;101448.22;5042821;28;20044;-36
2023/06/09 10:22:40;;;;;;;7.45;3.65;;;;;;;25.75;nan;101451.59;5042184;28;20912;-36
2023/06/09 10:25:06;;;;;;;18.50;9.00;;;;;;;25.79;nan;101445.69;5049355;28;20115;-37
2023/06/09 10:27:35;;;;;;;5.05;2.95;;;;;;;25.84;nan;101445.19;5013033;28;20040;-36
2023/06/09 10:30:02;;;;;;;6.85;2.78;;;;;;;25.89;nan;101447.34;5043164;28;20028;-36
2023/06/09 10:32:30;;;;;;;6.30;3.58;;;;;;;25.94;nan;101445.00;5025588;28;20033;-36
2023/06/09 10:34:59;;;;;;;7.80;3.92;;;;;;;25.97;nan;101428.44;5033800;28;20037;-37
2023/06/09 10:37:32;;;;;;;17.10;9.13;;;;;;;26.01;nan;101433.34;5026148;28;20168;-36
2023/06/09 10:40:14;;;;;;;9.70;5.45;;;;;;;26.03;nan;101428.59;5040522;28;20028;-36
2023/06/09 10:42:54;;;;;;;9.00;4.63;;;;;;;26.10;nan;101433.28;5047246;28;20024;-35
2023/06/09 10:45:27;;;;;;;7.45;4.80;;;;;;;26.08;nan;101424.53;5044749;28;20032;-36
2023/06/09 10:47:53;;;;;;;7.53;4.25;;;;;;;26.16;nan;101424.53;5043407;28;20028;-36
2023/06/09 10:50:30;;;;;;;7.03;4.03;;;;;;;26.23;nan;101430.91;5021420;28;20086;-36
2023/06/09 10:52:57;;;;;;;6.57;3.33;;;;;;;26.28;nan;101420.44;5039509;28;20041;-37
2023/06/09 10:55:30;;;;;;;5.50;3.15;;;;;;;26.35;nan;101425.97;5025326;28;20058;-36
2023/06/09 10:57:57;;;;;;;8.25;3.40;;;;;;;26.38;nan;101422.91;5034244;28;20033;-37
2023/06/09 11:00:25;;;;;;;7.43;3.60;;;;;;;26.43;nan;101417.81;5044573;28;20530;-37
2023/06/09 11:03:11;;;;;;;6.78;3.38;;;;;;;26.51;nan;101424.19;5014737;28;20032;-37
2023/06/09 11:05:46;;;;;;;6.03;3.25;;;;;;;26.51;nan;101425.03;5042955;28;20090;-36
2023/06/09 11:08:12;;;;;;;10.43;3.75;;;;;;;26.46;nan;101417.47;5042838;28;20033;-37
2023/06/09 11:10:38;;;;;;;5.78;3.47;;;;;;;26.60;nan;101418.56;5043591;28;20096;-36
2023/06/09 11:13:39;;;;;;;8.75;3.65;;;;;;;26.76;nan;101414.91;5032696;28;20418;-37
2023/06/09 11:16:05;;;;;;;9.87;3.37;;;;;;;26.84;nan;101421.31;5044750;28;20036;-37
2023/06/09 11:18:31;;;;;;;6.07;2.65;;;;;;;26.87;nan;101413.69;5028252;28;20284;-37
2023/06/09 11:21:16;;;;;;;14.98;4.22;;;;;;;26.88;nan;101412.66;5028852;28;20107;-37
2023/06/09 11:23:55;;;;;;;7.15;3.80;;;;;;;26.93;nan;101418.34;5047868;28;20031;-36
2023/06/09 11:26:25;;;;;;;6.20;3.38;;;;;;;26.95;nan;101410.09;5022313;28;20111;-37
2023/06/09 11:28:53;;;;;;;7.90;3.25;;;;;;;27.00;nan;101415.75;5026887;28;20037;-38
2023/06/09 11:31:24;;;;;;;7.15;3.17;;;;;;;27.08;nan;101406.75;5030511;28;20061;-37
2023/06/09 11:33:51;;;;;;;9.70;4.13;;;;;;;27.13;nan;101408.94;5038063;28;20024;-35
2023/06/09 11:36:30;;;;;;;7.47;3.50;;;;;;;27.22;nan;101413.22;5023876;28;20037;-36
2023/06/09 11:39:04;;;;;;;7.60;4.43;;;;;;;27.26;nan;101414.53;5048312;28;20029;-39
2023/06/09 11:41:31;;;;;;;9.27;4.00;;;;;;;27.30;nan;101404.19;5043096;28;20036;-37
2023/06/09 11:43:57;;;;;;;6.18;2.38;;;;;;;27.33;nan;101412.78;5024847;28;20514;-36
2023/06/09 11:46:24;;;;;;;9.85;4.00;;;;;;;27.36;nan;101401.59;5024679;28;20492;-36